Time;durP1;ratioP1;P1;durP2;ratioP2;P2;SDS_P1;SDS_P2;PMS_P1;PMS_P2;Temp;Humidity;BMP_temperature;BMP_pressure;BME280_temperature;BME280_humidity;BME280_pressure;Samples;Min_cycle;Max_cycle;Signal;HPM_P1;HPM_P2
2023/09/04 00:00:23;;;;;;;7.05;3.15;;;;;;;-145.70;100.00;63560.63;5021172;28;20068;-63
2023/09/04 00:02:49;;;;;;;5.68;3.00;;;;;;;-145.70;100.00;63560.63;5037621;28;20060;-63
2023/09/04 00:05:14;;;;;;;5.80;3.00;;;;;;;-145.70;100.00;63560.63;5015917;28;20053;-64
2023/09/04 00:07:40;;;;;;;6.50;2.95;;;;;;;-145.70;100.00;63560.63;5057930;28;20037;-63
2023/09/04 00:10:07;;;;;;;7.57;2.97;;;;;;;-145.70;100.00;63560.63;5032825;28;20029;-62
2023/09/04 00:12:33;;;;;;;9.07;3.22;;;;;;;-145.70;100.00;63560.63;5037633;28;20388;-65
2023/09/04 00:14:58;;;;;;;5.78;3.08;;;;;;;-145.70;100.00;63560.63;5039887;28;20040;-65
2023/09/04 00:17:24;;;;;;;5.63;2.65;;;;;;;-145.70;100.00;63560.63;5039067;28;20075;-63
2023/09/04 00:19:49;;;;;;;5.28;2.88;;;;;;;-145.70;100.00;63560.63;5017556;28;20155;-64
2023/09/04 00:22:14;;;;;;;6.32;3.00;;;;;;;-145.70;100.00;63560.63;5036340;28;20845;-64
2023/09/04 00:24:40;;;;;;;6.35;3.25;;;;;;;-145.70;100.00;63560.63;5024730;28;20037;-64
2023/09/04 00:27:08;;;;;;;5.32;2.92;;;;;;;-145.70;100.00;63560.63;5051239;28;20120;-63
2023/09/04 00:29:35;;;;;;;5.90;2.85;;;;;;;-145.70;100.00;63560.63;5037405;28;20029;-63
2023/09/04 00:32:03;;;;;;;5.32;2.72;;;;;;;-145.70;100.00;63560.63;5014675;28;20382;-63
2023/09/04 00:34:28;;;;;;;5.18;2.88;;;;;;;-145.70;100.00;63560.63;5022021;28;20025;-67
2023/09/04 00:36:54;;;;;;;5.43;2.95;;;;;;;-145.70;100.00;63560.63;5022188;28;20026;-62
2023/09/04 00:39:22;;;;;;;7.60;2.92;;;;;;;-145.70;100.00;63560.63;5038047;28;20052;-63
2023/09/04 00:41:47;;;;;;;6.25;2.90;;;;;;;-145.70;100.00;63560.63;5035331;28;20036;-63
2023/09/04 00:44:12;;;;;;;6.85;2.90;;;;;;;-145.70;100.00;63560.63;5041289;28;20025;-63
2023/09/04 00:46:40;;;;;;;5.78;2.88;;;;;;;-145.70;100.00;63560.63;5026681;28;20037;-64
2023/09/04 00:49:11;;;;;;;6.00;2.75;;;;;;;-145.70;100.00;63560.63;5041986;28;20036;-64
2023/09/04 00:51:37;;;;;;;5.13;2.90;;;;;;;-145.70;100.00;63560.63;5062204;28;20056;-63
2023/09/04 00:54:03;;;;;;;6.30;2.80;;;;;;;-145.70;100.00;63560.63;5048102;28;20051;-62
2023/09/04 00:56:28;;;;;;;6.32;2.75;;;;;;;-145.70;100.00;63560.63;5027912;28;20029;-63
2023/09/04 00:58:56;;;;;;;6.18;2.88;;;;;;;-145.70;100.00;63560.63;5026791;28;20033;-64
2023/09/04 01:01:24;;;;;;;5.20;3.00;;;;;;;-145.70;100.00;63560.63;5040964;28;20034;-63
2023/09/04 01:03:54;;;;;;;6.38;3.17;;;;;;;-145.70;100.00;63560.63;5025214;28;20065;-65
2023/09/04 01:06:22;;;;;;;6.43;2.90;;;;;;;-145.70;100.00;63560.63;5040613;28;20041;-63
2023/09/04 01:08:47;;;;;;;5.40;2.90;;;;;;;-145.70;100.00;63560.63;5039699;28;20063;-63
2023/09/04 01:11:34;;;;;;;4.85;2.50;;;;;;;-145.70;100.00;63560.63;5027353;28;20115;-63
2023/09/04 01:14:08;;;;;;;5.70;3.30;;;;;;;-145.70;100.00;63560.63;5043102;28;20033;-64
2023/09/04 01:16:36;;;;;;;6.40;2.92;;;;;;;-145.70;100.00;63560.63;5032388;28;20128;-64
2023/09/04 01:19:03;;;;;;;5.82;2.92;;;;;;;-145.70;100.00;63560.63;5045045;28;20492;-64
2023/09/04 01:21:29;;;;;;;6.07;2.92;;;;;;;-145.70;100.00;63560.63;5043104;28;20508;-64
2023/09/04 01:23:54;;;;;;;5.78;2.97;;;;;;;-145.70;100.00;63560.63;5060897;28;20032;-64
2023/09/04 01:26:39;;;;;;;6.18;2.90;;;;;;;-145.70;100.00;63560.63;5060109;28;20080;-63
2023/09/04 01:29:04;;;;;;;5.45;2.60;;;;;;;-145.70;100.00;63560.63;5037743;28;20141;-63
2023/09/04 01:31:33;;;;;;;6.50;3.08;;;;;;;-145.70;100.00;63560.63;5042337;28;20062;-63
2023/09/04 01:34:15;;;;;;;8.10;3.30;;;;;;;-145.70;100.00;63560.63;5031410;28;20067;-64
2023/09/04 01:36:41;;;;;;;5.57;2.97;;;;;;;-145.70;100.00;63560.63;5044528;28;20758;-65
2023/09/04 01:39:09;;;;;;;5.47;3.03;;;;;;;-145.70;100.00;63560.63;5019799;28;20034;-63
2023/09/04 01:41:40;;;;;;;6.30;3.00;;;;;;;-145.70;100.00;63560.63;5035402;28;20734;-63
2023/09/04 01:44:08;;;;;;;5.85;3.05;;;;;;;-145.70;100.00;63560.63;5041906;28;20041;-64
2023/09/04 01:46:35;;;;;;;5.57;3.20;;;;;;;-145.70;100.00;63560.63;5039128;28;20032;-64
2023/09/04 01:49:03;;;;;;;6.35;3.40;;;;;;;-145.70;100.00;63560.63;5038641;28;20040;-63
2023/09/04 01:51:31;;;;;;;5.75;2.95;;;;;;;-145.70;100.00;63560.63;5039496;28;20502;-64
2023/09/04 01:53:56;;;;;;;5.65;3.20;;;;;;;-145.70;100.00;63560.63;5043050;28;20045;-64
2023/09/04 01:56:21;;;;;;;7.90;2.78;;;;;;;-145.70;100.00;63560.63;5046625;28;20110;-62
2023/09/04 01:58:47;;;;;;;6.53;3.10;;;;;;;-145.70;100.00;63560.63;5044493;28;20032;-62
2023/09/04 02:01:13;;;;;;;5.68;2.85;;;;;;;-145.70;100.00;63560.63;5041926;28;20025;-63
2023/09/04 02:03:38;;;;;;;5.32;2.80;;;;;;;-145.70;100.00;63560.63;5043514;28;20016;-63
2023/09/04 02:06:04;;;;;;;5.63;3.10;;;;;;;-145.70;100.00;63560.63;5021301;28;20036;-64
2023/09/04 02:08:32;;;;;;;5.75;3.13;;;;;;;-145.70;100.00;63560.63;5043749;28;20055;-64
2023/09/04 02:11:00;;;;;;;6.10;3.00;;;;;;;-145.70;100.00;63560.63;5039199;28;20068;-62
2023/09/04 02:13:30;;;;;;;5.80;2.92;;;;;;;-145.70;100.00;63560.63;5040551;28;20029;-62
2023/09/04 02:15:58;;;;;;;5.25;3.13;;;;;;;-145.70;100.00;63560.63;5039123;28;20108;-63
2023/09/04 02:18:28;;;;;;;6.13;3.10;;;;;;;-145.70;100.00;63560.63;5020516;28;20033;-63
2023/09/04 02:20:56;;;;;;;5.43;2.80;;;;;;;-145.70;100.00;63560.63;5022793;28;20037;-63
2023/09/04 02:23:21;;;;;;;5.70;3.03;;;;;;;-145.70;100.00;63560.63;5039358;28;20664;-63
2023/09/04 02:25:49;;;;;;;6.53;3.05;;;;;;;-145.70;100.00;63560.63;5020586;28;20052;-63
2023/09/04 02:28:20;;;;;;;6.15;3.20;;;;;;;-145.70;100.00;63560.63;5036911;28;20057;-63
2023/09/04 02:30:45;;;;;;;6.03;3.03;;;;;;;-145.70;100.00;63560.63;5029835;28;20487;-63
2023/09/04 02:33:11;;;;;;;5.68;3.03;;;;;;;-145.70;100.00;63560.63;5028103;28;20033;-62
2023/09/04 02:35:36;;;;;;;6.10;2.80;;;;;;;-145.70;100.00;63560.63;5016110;28;20101;-63
2023/09/04 02:38:02;;;;;;;7.22;3.17;;;;;;;-145.70;100.00;63560.63;5034023;28;20021;-62
2023/09/04 02:40:27;;;;;;;6.25;3.22;;;;;;;-145.70;100.00;63560.63;5033511;28;20807;-63
2023/09/04 02:42:55;;;;;;;5.82;3.10;;;;;;;-145.70;100.00;63560.63;5031034;28;20458;-62
2023/09/04 02:45:23;;;;;;;6.45;3.20;;;;;;;-145.70;100.00;63560.63;5042715;28;20090;-63
2023/09/04 02:47:50;;;;;;;6.03;3.05;;;;;;;-145.70;100.00;63560.63;5023803;28;20047;-62
2023/09/04 02:50:17;;;;;;;8.00;3.42;;;;;;;-145.70;100.00;63560.63;5021153;28;20040;-63
2023/09/04 02:52:45;;;;;;;6.38;3.33;;;;;;;-145.70;100.00;63560.63;5034032;28;20258;-63
2023/09/04 02:55:11;;;;;;;5.47;3.22;;;;;;;-145.70;100.00;63560.63;5036725;28;20142;-65
2023/09/04 02:57:36;;;;;;;5.28;3.03;;;;;;;-145.70;100.00;63560.63;5041604;28;20033;-62
2023/09/04 03:00:08;;;;;;;5.70;3.15;;;;;;;-145.70;100.00;63560.63;5036500;28;20044;-64
2023/09/04 03:02:36;;;;;;;6.43;3.35;;;;;;;-145.70;100.00;63560.63;5044561;28;20041;-61
2023/09/04 03:05:02;;;;;;;5.72;2.95;;;;;;;-145.70;100.00;63560.63;5035057;28;20028;-65
2023/09/04 03:07:28;;;;;;;6.82;3.08;;;;;;;-145.70;100.00;63560.63;5023468;28;20036;-63
2023/09/04 03:09:57;;;;;;;6.15;3.10;;;;;;;-145.70;100.00;63560.63;5038042;28;20098;-63
2023/09/04 03:12:24;;;;;;;5.93;3.33;;;;;;;-145.70;100.00;63560.63;5037236;28;20047;-63
2023/09/04 03:14:59;;;;;;;7.07;2.88;;;;;;;-145.70;100.00;63560.63;5023302;28;20037;-63
2023/09/04 03:17:31;;;;;;;5.85;2.92;;;;;;;-145.70;100.00;63560.63;5037456;28;20110;-63
2023/09/04 03:20:00;;;;;;;5.35;3.38;;;;;;;-145.70;100.00;63560.63;5020857;28;20055;-63
2023/09/04 03:22:26;;;;;;;5.47;3.40;;;;;;;-145.70;100.00;63560.63;5023260;28;20178;-63
2023/09/04 03:24:56;;;;;;;5.75;3.30;;;;;;;-145.70;100.00;63560.63;5036389;28;20492;-63
2023/09/04 03:27:21;;;;;;;6.57;3.67;;;;;;;-145.70;100.00;63560.63;5038909;28;20049;-63
2023/09/04 03:29:49;;;;;;;6.80;3.20;;;;;;;-145.70;100.00;63560.63;5037963;28;20039;-63
2023/09/04 03:32:17;;;;;;;5.88;3.17;;;;;;;-145.70;100.00;63560.63;5021865;28;20048;-62
2023/09/04 03:34:43;;;;;;;6.80;3.25;;;;;;;-145.70;100.00;63560.63;5036265;28;20099;-63
2023/09/04 03:37:08;;;;;;;5.80;3.33;;;;;;;-145.70;100.00;63560.63;5035308;28;20033;-63
2023/09/04 03:39:39;;;;;;;5.40;2.92;;;;;;;-145.70;100.00;63560.63;5038858;28;20033;-63
2023/09/04 03:42:06;;;;;;;6.10;3.30;;;;;;;-145.70;100.00;63560.63;5025192;28;20068;-63
2023/09/04 03:44:31;;;;;;;6.07;3.15;;;;;;;-145.70;100.00;63560.63;5038560;28;21605;-63
2023/09/04 03:46:59;;;;;;;7.28;3.00;;;;;;;-145.70;100.00;63560.63;5023440;28;20036;-63
2023/09/04 03:49:27;;;;;;;7.35;3.28;;;;;;;-145.70;100.00;63560.63;5023326;28;20029;-62
2023/09/04 03:51:52;;;;;;;7.18;3.80;;;;;;;-145.70;100.00;63560.63;5031494;28;20033;-63
2023/09/04 03:54:21;;;;;;;7.05;3.47;;;;;;;-145.70;100.00;63560.63;5043282;28;20075;-63
2023/09/04 03:56:46;;;;;;;6.80;3.20;;;;;;;-145.70;100.00;63560.63;5019382;28;20040;-63
2023/09/04 03:59:12;;;;;;;5.25;3.15;;;;;;;-145.70;100.00;63560.63;5023255;28;20029;-63
2023/09/04 04:01:39;;;;;;;5.65;3.53;;;;;;;-145.70;100.00;63560.63;5033305;28;21333;-62
2023/09/04 04:04:09;;;;;;;5.05;3.28;;;;;;;-145.70;100.00;63560.63;5031559;28;20078;-63
2023/09/04 04:06:34;;;;;;;;;;;;;;;-145.70;100.00;63560.63;5040172;28;20106;-63
2023/09/04 04:09:03;;;;;;;5.00;2.90;;;;;;;-145.70;100.00;63560.63;5037496;28;20371;-63
2023/09/04 04:11:28;;;;;;;6.63;3.55;;;;;;;-145.70;100.00;63560.63;5035790;28;20805;-62
2023/09/04 04:13:53;;;;;;;6.50;3.33;;;;;;;-145.70;100.00;63560.63;5021501;28;20043;-63
2023/09/04 04:16:19;;;;;;;5.80;3.30;;;;;;;-145.70;100.00;63560.63;5037575;28;20570;-63
2023/09/04 04:18:44;;;;;;;9.23;3.47;;;;;;;-145.70;100.00;63560.63;5022772;28;20035;-63
2023/09/04 04:21:10;;;;;;;7.65;3.47;;;;;;;-145.70;100.00;63560.63;5035837;28;20065;-64
2023/09/04 04:23:37;;;;;;;5.72;3.30;;;;;;;-145.70;100.00;63560.63;5038026;28;20475;-63
2023/09/04 04:26:03;;;;;;;5.82;3.35;;;;;;;-145.70;100.00;63560.63;5022855;28;20550;-63
2023/09/04 04:28:29;;;;;;;6.05;3.13;;;;;;;-145.70;100.00;63560.63;5052446;28;20053;-63
2023/09/04 04:30:57;;;;;;;6.40;3.50;;;;;;;-145.70;100.00;63560.63;5036867;28;20096;-64
2023/09/04 04:33:22;;;;;;;6.32;3.33;;;;;;;-145.70;100.00;63560.63;5021258;28;20122;-63
2023/09/04 04:35:53;;;;;;;5.30;3.03;;;;;;;-145.70;100.00;63560.63;5032794;28;20108;-63
2023/09/04 04:38:21;;;;;;;7.25;3.25;;;;;;;-145.70;100.00;63560.63;5036067;28;20071;-63
2023/09/04 04:40:46;;;;;;;6.07;2.97;;;;;;;-145.70;100.00;63560.63;5035462;28;20036;-63
2023/09/04 04:43:16;;;;;;;6.15;3.45;;;;;;;-145.70;100.00;63560.63;5039625;28;20033;-62
2023/09/04 04:45:43;;;;;;;5.80;3.40;;;;;;;-145.70;100.00;63560.63;5032745;28;20037;-63
2023/09/04 04:48:08;;;;;;;5.03;2.85;;;;;;;-145.70;100.00;63560.63;5035394;28;20076;-63
2023/09/04 04:50:34;;;;;;;5.22;2.88;;;;;;;-145.70;100.00;63560.63;5018031;28;20029;-63
2023/09/04 04:53:01;;;;;;;7.30;3.20;;;;;;;-145.70;100.00;63560.63;5038405;28;20970;-63
2023/09/04 04:55:29;;;;;;;5.70;3.30;;;;;;;-145.70;100.00;63560.63;5030681;28;20029;-62
2023/09/04 04:57:57;;;;;;;6.55;3.03;;;;;;;-145.70;100.00;63560.63;5035668;28;20070;-65
2023/09/04 05:00:23;;;;;;;5.13;2.88;;;;;;;-145.70;100.00;63560.63;5039518;28;20028;-63
2023/09/04 05:02:48;;;;;;;6.65;3.08;;;;;;;-145.70;100.00;63560.63;5031463;28;20033;-63
2023/09/04 05:05:13;;;;;;;5.53;3.10;;;;;;;-145.70;100.00;63560.63;5024038;28;20025;-62
2023/09/04 05:07:41;;;;;;;5.40;3.05;;;;;;;-145.70;100.00;63560.63;5033133;28;20494;-62
2023/09/04 05:10:07;;;;;;;7.70;3.20;;;;;;;-145.70;100.00;63560.63;5039212;28;20064;-62
2023/09/04 05:12:32;;;;;;;5.93;3.13;;;;;;;-145.70;100.00;63560.63;5030092;28;20199;-63
2023/09/04 05:14:58;;;;;;;6.05;3.38;;;;;;;-145.70;100.00;63560.63;5023568;28;20028;-63
2023/09/04 05:17:23;;;;;;;5.35;2.92;;;;;;;-145.70;100.00;63560.63;5039427;28;20110;-63
2023/09/04 05:19:51;;;;;;;5.75;3.20;;;;;;;-145.70;100.00;63560.63;5029629;28;20037;-63
2023/09/04 05:22:18;;;;;;;5.75;3.13;;;;;;;-145.70;100.00;63560.63;5030974;28;20060;-63
2023/09/04 05:24:44;;;;;;;5.93;2.88;;;;;;;-145.70;100.00;63560.63;5035151;28;20064;-62
2023/09/04 05:27:09;;;;;;;5.72;3.00;;;;;;;-145.70;100.00;63560.63;5039842;28;20049;-62
2023/09/04 05:29:37;;;;;;;5.03;3.00;;;;;;;-145.70;100.00;63560.63;5034929;28;20052;-63
2023/09/04 05:32:03;;;;;;;7.18;3.38;;;;;;;-145.70;100.00;63560.63;5036189;28;20079;-63
2023/09/04 05:34:28;;;;;;;7.50;3.20;;;;;;;-145.70;100.00;63560.63;5019643;28;20839;-63
2023/09/04 05:36:57;;;;;;;5.63;3.10;;;;;;;-145.70;100.00;63560.63;5024952;28;20032;-62
2023/09/04 05:39:25;;;;;;;5.70;3.00;;;;;;;-145.70;100.00;63560.63;5040089;28;20035;-62
2023/09/04 05:41:53;;;;;;;5.85;3.00;;;;;;;-145.70;100.00;63560.63;5036219;28;20203;-63
2023/09/04 05:44:18;;;;;;;6.03;2.92;;;;;;;-145.70;100.00;63560.63;5040190;28;20028;-64
2023/09/04 05:46:44;;;;;;;5.90;2.90;;;;;;;-145.70;100.00;63560.63;5036493;28;20037;-62
2023/09/04 05:49:10;;;;;;;6.13;3.78;;;;;;;-145.70;100.00;63560.63;5043286;28;20495;-65
2023/09/04 05:51:35;;;;;;;7.72;2.95;;;;;;;-145.70;100.00;63560.63;5039450;28;20802;-63
2023/09/04 05:54:00;;;;;;;5.47;3.00;;;;;;;-145.70;100.00;63560.63;5021408;28;20039;-62
2023/09/04 05:56:28;;;;;;;5.82;3.00;;;;;;;-145.70;100.00;63560.63;5042485;28;20033;-64
2023/09/04 05:58:56;;;;;;;5.10;2.92;;;;;;;-145.70;100.00;63560.63;5041782;28;20033;-63
2023/09/04 06:01:24;;;;;;;6.35;3.05;;;;;;;-145.70;100.00;63560.63;5026669;28;20032;-63
2023/09/04 06:03:51;;;;;;;5.82;3.00;;;;;;;-145.70;100.00;63560.63;5025209;28;20909;-62
2023/09/04 06:06:17;;;;;;;5.30;3.05;;;;;;;-145.70;100.00;63560.63;5055496;28;20074;-63
2023/09/04 06:08:43;;;;;;;5.70;3.00;;;;;;;-145.70;100.00;63560.63;5037306;28;20025;-63
2023/09/04 06:11:08;;;;;;;8.55;3.00;;;;;;;-145.70;100.00;63560.63;5026891;28;20484;-63
2023/09/04 06:13:34;;;;;;;5.93;3.08;;;;;;;-145.70;100.00;63560.63;5041009;28;20064;-63
2023/09/04 06:16:03;;;;;;;5.18;2.92;;;;;;;-145.70;100.00;63560.63;5041816;28;20033;-64
2023/09/04 06:18:31;;;;;;;5.57;3.08;;;;;;;-145.70;100.00;63560.63;5041545;28;20587;-63
2023/09/04 06:20:57;;;;;;;5.53;2.92;;;;;;;-145.70;100.00;63560.63;5037013;28;20029;-64
2023/09/04 06:23:23;;;;;;;5.53;3.13;;;;;;;-145.70;100.00;63560.63;5038269;28;20084;-63
2023/09/04 06:25:48;;;;;;;6.47;2.90;;;;;;;-145.70;100.00;63560.63;5041066;28;20491;-66
2023/09/04 06:28:16;;;;;;;6.20;3.25;;;;;;;-145.70;100.00;63560.63;5039481;28;20575;-66
2023/09/04 06:30:42;;;;;;;10.52;3.33;;;;;;;-145.70;100.00;63560.63;5034218;28;20040;-62
2023/09/04 06:33:07;;;;;;;12.57;3.22;;;;;;;-145.70;100.00;63560.63;5036330;28;20087;-63
2023/09/04 06:35:33;;;;;;;5.63;2.90;;;;;;;-145.70;100.00;63560.63;5039124;28;20040;-63
2023/09/04 06:38:03;;;;;;;5.65;3.35;;;;;;;-145.70;100.00;63560.63;5040302;28;20047;-63
2023/09/04 06:40:29;;;;;;;6.30;3.00;;;;;;;-145.70;100.00;63560.63;5042029;28;20056;-63
2023/09/04 06:42:57;;;;;;;6.28;3.17;;;;;;;-145.70;100.00;63560.63;5052243;28;20139;-63
2023/09/04 06:45:22;;;;;;;6.38;3.38;;;;;;;-145.70;100.00;63560.63;5039675;28;20029;-67
2023/09/04 06:47:50;;;;;;;5.45;3.38;;;;;;;-145.70;100.00;63560.63;5045870;28;20042;-63
2023/09/04 06:50:17;;;;;;;6.65;3.28;;;;;;;-145.70;100.00;63560.63;5036052;28;20037;-63
2023/09/04 06:52:43;;;;;;;5.70;3.13;;;;;;;-145.70;100.00;63560.63;5040268;28;20124;-62
2023/09/04 06:55:09;;;;;;;6.63;3.35;;;;;;;-145.70;100.00;63560.63;5036663;28;20029;-63
2023/09/04 06:57:39;;;;;;;5.47;3.40;;;;;;;-145.70;100.00;63560.63;5042312;28;20087;-63
2023/09/04 07:00:09;;;;;;;5.75;3.38;;;;;;;-145.70;100.00;63560.63;5043605;28;20025;-62
2023/09/04 07:02:36;;;;;;;6.47;3.10;;;;;;;-145.70;100.00;63560.63;5037633;28;20036;-63
2023/09/04 07:05:05;;;;;;;5.43;2.85;;;;;;;-145.70;100.00;63560.63;5020878;28;20030;-63
2023/09/04 07:07:35;;;;;;;5.53;3.15;;;;;;;-145.70;100.00;63560.63;5033929;28;20068;-63
2023/09/04 07:10:03;;;;;;;6.50;3.30;;;;;;;-145.70;100.00;63560.63;5040719;28;20029;-63
2023/09/04 07:12:31;;;;;;;8.07;2.93;;;;;;;-145.70;100.00;63560.63;5039154;28;20472;-65
2023/09/04 07:14:56;;;;;;;9.57;3.42;;;;;;;-145.70;100.00;63560.63;5039534;28;20076;-62
2023/09/04 07:17:21;;;;;;;5.88;3.28;;;;;;;-145.70;100.00;63560.63;5036721;28;20764;-63
2023/09/04 07:19:47;;;;;;;7.03;3.28;;;;;;;-145.70;100.00;63560.63;5035402;28;20036;-63
2023/09/04 07:22:17;;;;;;;5.90;3.28;;;;;;;-145.70;100.00;63560.63;5040278;28;20032;-62
2023/09/04 07:24:42;;;;;;;6.35;3.28;;;;;;;-145.70;100.00;63560.63;5035188;28;20025;-64
2023/09/04 07:27:08;;;;;;;6.70;3.40;;;;;;;-145.70;100.00;63560.63;5042347;28;20045;-63
2023/09/04 07:29:33;;;;;;;6.03;3.40;;;;;;;-145.70;100.00;63560.63;5020529;28;20591;-63
2023/09/04 07:31:59;;;;;;;6.45;3.10;;;;;;;-145.70;100.00;63560.63;5039065;28;20036;-63
2023/09/04 07:34:24;;;;;;;5.65;3.30;;;;;;;-145.70;100.00;63560.63;5039196;28;20407;-64
2023/09/04 07:36:50;;;;;;;5.00;3.10;;;;;;;-145.70;100.00;63560.63;5041306;28;20048;-63
2023/09/04 07:39:17;;;;;;;6.80;3.20;;;;;;;-145.70;100.00;63560.63;5042329;28;20033;-64
2023/09/04 07:41:45;;;;;;;7.63;3.15;;;;;;;-145.70;100.00;63560.63;5024086;28;20040;-63
2023/09/04 07:44:15;;;;;;;5.72;3.10;;;;;;;-145.70;100.00;63560.63;5038071;28;20518;-64
2023/09/04 07:46:43;;;;;;;4.65;2.63;;;;;;;-145.70;100.00;63560.63;5038444;28;20088;-64
2023/09/04 07:49:08;;;;;;;6.75;3.38;;;;;;;-145.70;100.00;63560.63;5036859;28;20138;-63
2023/09/04 07:51:36;;;;;;;6.13;3.10;;;;;;;-145.70;100.00;63560.63;5021328;28;20560;-64
2023/09/04 07:54:02;;;;;;;6.82;3.30;;;;;;;-145.70;100.00;63560.63;5041827;28;20793;-62
2023/09/04 07:56:28;;;;;;;6.13;3.05;;;;;;;-145.70;100.00;63560.63;5036908;28;20033;-63
2023/09/04 07:58:58;;;;;;;5.65;3.28;;;;;;;-145.70;100.00;63560.63;5020626;28;20049;-62
2023/09/04 08:01:30;;;;;;;7.30;3.47;;;;;;;-145.70;100.00;63560.63;5036474;28;20040;-63
2023/09/04 08:03:56;;;;;;;5.60;3.30;;;;;;;-145.70;100.00;63560.63;5022546;28;20108;-65
2023/09/04 08:06:21;;;;;;;6.80;3.28;;;;;;;-145.70;100.00;63560.63;5041541;28;20105;-63
2023/09/04 08:08:46;;;;;;;6.60;3.03;;;;;;;-145.70;100.00;63560.63;5040180;28;20443;-63
2023/09/04 08:11:12;;;;;;;6.60;3.45;;;;;;;-145.70;100.00;63560.63;5039374;28;20438;-62
2023/09/04 08:13:40;;;;;;;6.68;3.10;;;;;;;-145.70;100.00;63560.63;5038329;28;20076;-63
2023/09/04 08:16:05;;;;;;;5.75;3.20;;;;;;;-145.70;100.00;63560.63;5040491;28;20117;-63
2023/09/04 08:18:33;;;;;;;5.30;3.15;;;;;;;-145.70;100.00;63560.63;5019971;28;20063;-62
2023/09/04 08:20:59;;;;;;;6.30;3.50;;;;;;;-145.70;100.00;63560.63;5020734;28;20126;-63
2023/09/04 08:23:24;;;;;;;6.18;2.97;;;;;;;-145.70;100.00;63560.63;5038991;28;20032;-63
2023/09/04 08:25:59;;;;;;;7.63;3.13;;;;;;;-145.70;100.00;63560.63;5031492;28;20495;-63
2023/09/04 08:28:25;;;;;;;6.50;3.35;;;;;;;-145.70;100.00;63560.63;5023547;28;20056;-63
2023/09/04 08:30:53;;;;;;;7.18;3.40;;;;;;;-145.70;100.00;63560.63;5038041;28;20492;-63
2023/09/04 08:33:23;;;;;;;6.38;2.90;;;;;;;-145.70;100.00;63560.63;5039575;28;20029;-62
2023/09/04 08:35:51;;;;;;;5.05;2.80;;;;;;;-145.70;100.00;63560.63;5034449;28;20029;-63
2023/09/04 08:38:16;;;;;;;6.47;3.20;;;;;;;-145.70;100.00;63560.63;5021460;28;20048;-62
2023/09/04 08:40:45;;;;;;;4.85;2.80;;;;;;;-145.70;100.00;63560.63;5033126;28;20057;-62
2023/09/04 08:43:13;;;;;;;5.50;3.13;;;;;;;-145.70;100.00;63560.63;5015063;28;20087;-61
2023/09/04 08:45:42;;;;;;;5.50;2.92;;;;;;;-145.70;100.00;63560.63;5031367;28;20189;-62
2023/09/04 08:48:08;;;;;;;6.70;3.10;;;;;;;-145.70;100.00;63560.63;5032067;28;20475;-62
2023/09/04 08:50:35;;;;;;;5.95;2.88;;;;;;;-145.70;100.00;63560.63;5030862;28;20098;-61
2023/09/04 08:53:01;;;;;;;5.45;2.92;;;;;;;-145.70;100.00;63560.63;5029251;28;20033;-61
2023/09/04 08:55:26;;;;;;;5.03;2.55;;;;;;;-145.70;100.00;63560.63;5024566;28;20058;-61
2023/09/04 08:57:52;;;;;;;7.28;3.10;;;;;;;-145.70;100.00;63560.63;5028367;28;20107;-60
2023/09/04 09:00:20;;;;;;;5.72;3.00;;;;;;;-145.70;100.00;63560.63;5035116;28;20060;-60
2023/09/04 09:02:48;;;;;;;5.95;3.30;;;;;;;-145.70;100.00;63560.63;5016215;28;20071;-61
2023/09/04 09:05:16;;;;;;;6.00;3.10;;;;;;;-145.70;100.00;63560.63;5031318;28;20044;-61
2023/09/04 09:07:41;;;;;;;8.70;3.15;;;;;;;-145.70;100.00;63560.63;5049301;28;20186;-61
2023/09/04 09:10:09;;;;;;;6.28;3.00;;;;;;;-145.70;100.00;63560.63;5048394;28;20115;-61
2023/09/04 09:12:39;;;;;;;5.10;3.03;;;;;;;-145.70;100.00;63560.63;5013964;28;20033;-64
2023/09/04 09:15:07;;;;;;;5.75;2.92;;;;;;;-145.70;100.00;63560.63;5014044;28;20028;-61
2023/09/04 09:17:33;;;;;;;5.82;3.20;;;;;;;-145.70;100.00;63560.63;5015841;28;20068;-65
2023/09/04 09:20:00;;;;;;;5.75;3.05;;;;;;;-145.70;100.00;63560.63;5033124;28;20100;-61
2023/09/04 09:22:26;;;;;;;5.45;3.00;;;;;;;-145.70;100.00;63560.63;5035018;28;20079;-61
2023/09/04 09:24:59;;;;;;;5.47;2.95;;;;;;;-145.70;100.00;63560.63;5032797;28;20029;-62
2023/09/04 09:27:32;;;;;;;6.72;3.25;;;;;;;-145.70;100.00;63560.63;5047235;28;20049;-62
2023/09/04 09:30:01;;;;;;;6.28;3.13;;;;;;;-145.70;100.00;63560.63;5033929;28;20028;-61
2023/09/04 09:32:31;;;;;;;4.93;2.70;;;;;;;-145.70;100.00;63560.63;5034707;28;20116;-63
2023/09/04 09:34:58;;;;;;;6.50;3.35;;;;;;;-145.70;100.00;63560.63;5017963;28;20024;-63
2023/09/04 09:37:32;;;;;;;5.30;3.17;;;;;;;-145.70;100.00;63560.63;5033411;28;20038;-61
2023/09/04 09:40:00;;;;;;;6.18;3.35;;;;;;;-145.70;100.00;63560.63;5035377;28;20021;-62
2023/09/04 09:42:31;;;;;;;6.72;3.42;;;;;;;-145.70;100.00;63560.63;5031452;28;20029;-61
2023/09/04 09:44:58;;;;;;;5.97;3.47;;;;;;;-145.70;100.00;63560.63;5036037;28;20199;-62
2023/09/04 09:47:24;;;;;;;5.60;3.58;;;;;;;-145.70;100.00;63560.63;5031972;28;20071;-64
2023/09/04 09:49:51;;;;;;;7.38;3.90;;;;;;;-145.70;100.00;63560.63;5047126;28;20146;-63
2023/09/04 09:52:17;;;;;;;8.13;4.05;;;;;;;-145.70;100.00;63560.63;5033959;28;20041;-65
2023/09/04 09:54:46;;;;;;;7.95;4.20;;;;;;;-145.70;100.00;63560.63;5045132;28;20029;-64
2023/09/04 09:57:14;;;;;;;6.55;4.47;;;;;;;-145.70;100.00;63560.63;5007538;28;20051;-65
2023/09/04 09:59:52;;;;;;;7.75;5.22;;;;;;;-145.70;100.00;63560.63;5046995;28;20039;-63
2023/09/04 10:02:19;;;;;;;7.63;4.47;;;;;;;-145.70;100.00;63560.63;5030474;28;20053;-64
2023/09/04 10:04:50;;;;;;;7.53;4.50;;;;;;;-145.70;100.00;63560.63;5030263;28;20148;-63
2023/09/04 10:07:27;;;;;;;7.65;4.65;;;;;;;-145.70;100.00;63560.63;5027094;28;20127;-64
2023/09/04 10:10:05;;;;;;;8.15;4.70;;;;;;;-145.70;100.00;63560.63;5029996;28;20032;-65
2023/09/04 10:12:50;;;;;;;9.48;4.85;;;;;;;-145.70;100.00;63560.63;5008111;28;20032;-64
2023/09/04 10:15:25;;;;;;;8.13;5.00;;;;;;;-145.70;100.00;63560.63;5007994;28;20051;-65
2023/09/04 10:18:05;;;;;;;8.10;4.60;;;;;;;-145.70;100.00;63560.63;5029587;28;20029;-65
2023/09/04 10:20:32;;;;;;;6.78;4.25;;;;;;;-145.70;100.00;63560.63;5031938;28;20021;-64
2023/09/04 10:23:09;;;;;;;7.75;4.72;;;;;;;-145.70;100.00;63560.63;5011178;28;20505;-64
2023/09/04 10:25:59;;;;;;;8.35;4.80;;;;;;;-145.70;100.00;63560.63;5025515;28;20090;-65
2023/09/04 10:28:35;;;;;;;6.55;4.47;;;;;;;-145.70;100.00;63560.63;5028783;28;20423;-65
2023/09/04 10:31:01;;;;;;;6.72;4.38;;;;;;;-145.70;100.00;63560.63;5029884;28;20114;-65
2023/09/04 10:33:26;;;;;;;6.82;4.75;;;;;;;-145.70;100.00;63560.63;5014319;28;20710;-64
2023/09/04 10:35:54;;;;;;;8.45;5.22;;;;;;;-145.70;100.00;63560.63;5031508;28;20021;-65
2023/09/04 10:38:19;;;;;;;7.35;4.95;;;;;;;-145.70;100.00;63560.63;5046918;28;20029;-65
2023/09/04 10:40:46;;;;;;;7.85;4.70;;;;;;;-145.70;100.00;63560.63;5028460;28;20076;-66
2023/09/04 10:43:14;;;;;;;7.05;4.70;;;;;;;-145.70;100.00;63560.63;5014099;28;20082;-66
2023/09/04 10:45:39;;;;;;;7.00;5.18;;;;;;;-145.70;100.00;63560.63;5015220;28;20032;-64
2023/09/04 10:48:07;;;;;;;7.35;4.80;;;;;;;-145.70;100.00;63560.63;5026956;28;20024;-64
2023/09/04 10:50:40;;;;;;;8.77;4.70;;;;;;;-145.70;100.00;63560.63;5029974;28;20060;-65
2023/09/04 10:53:06;;;;;;;7.97;5.05;;;;;;;-145.70;100.00;63560.63;5041844;28;20792;-64
2023/09/04 10:55:36;;;;;;;8.20;5.25;;;;;;;-145.70;100.00;63560.63;5029286;28;20108;-65
2023/09/04 10:58:04;;;;;;;8.00;4.63;;;;;;;-145.70;100.00;63560.63;5025298;28;20144;-66
2023/09/04 11:00:37;;;;;;;10.13;4.57;;;;;;;-145.70;100.00;63560.63;5046117;28;20075;-65
2023/09/04 11:03:15;;;;;;;7.75;4.57;;;;;;;-145.70;100.00;63560.63;5046009;28;20309;-64
2023/09/04 11:06:02;;;;;;;7.60;5.00;;;;;;;-145.70;100.00;63560.63;5028544;28;20613;-65
2023/09/04 11:08:35;;;;;;;7.95;5.00;;;;;;;-145.70;100.00;63560.63;5022774;28;20087;-64
2023/09/04 11:11:03;;;;;;;9.00;5.13;;;;;;;-145.70;100.00;63560.63;5025169;28;20029;-64